Time;durP1;ratioP1;P1;durP2;ratioP2;P2;SDS_P1;SDS_P2;PMS_P1;PMS_P2;Temp;Humidity;BMP_temperature;BMP_pressure;BME280_temperature;BME280_humidity;BME280_pressure;Samples;Min_cycle;Max_cycle;Signal;HPM_P1;HPM_P2
2023/09/22 00:35:12;;;;;;;9.68;5.28;;;15.50;95.80;;;;;;5054186;28;20021;-76
2023/09/22 00:37:40;;;;;;;14.93;5.95;;;15.50;95.60;;;;;;5036815;28;20021;-76
2023/09/22 00:40:08;;;;;;;11.27;5.57;;;15.40;95.70;;;;;;5054370;28;20018;-76
2023/09/22 00:42:34;;;;;;;11.93;5.68;;;15.40;95.70;;;;;;5020470;28;20093;-76
2023/09/22 00:44:59;;;;;;;12.40;5.70;;;15.40;95.50;;;;;;5053348;28;20030;-76
2023/09/22 00:47:25;;;;;;;12.93;5.40;;;15.30;95.30;;;;;;5053048;28;20053;-76
2023/09/22 00:49:53;;;;;;;11.00;5.75;;;15.20;95.50;;;;;;5036499;28;20136;-76
2023/09/22 00:52:22;;;;;;;11.77;5.13;;;15.20;95.40;;;;;;5036568;28;20017;-76
2023/09/22 00:54:51;;;;;;;10.13;5.50;;;15.20;95.40;;;;;;5053909;28;20021;-76
2023/09/22 00:57:17;;;;;;;10.98;5.35;;;15.10;95.30;;;;;;5053990;28;20025;-77
2023/09/22 00:59:45;;;;;;;8.80;5.13;;;15.10;95.30;;;;;;5036437;28;20025;-76
2023/09/22 01:02:11;;;;;;;8.55;4.75;;;15.00;95.20;;;;;;5036403;28;20104;-76
2023/09/22 01:04:37;;;;;;;8.80;4.75;;;15.00;95.20;;;;;;5036315;28;20036;-76
2023/09/22 01:07:03;;;;;;;9.38;4.60;;;14.80;95.00;;;;;;5036313;28;20492;-76
2023/09/22 01:09:29;;;;;;;8.43;4.22;;;14.80;95.30;;;;;;5053642;28;20028;-76
2023/09/22 01:11:55;;;;;;;9.98;4.43;;;14.90;95.30;;;;;;5036240;28;20057;-76
2023/09/22 01:14:21;;;;;;;9.82;4.43;;;14.90;95.20;;;;;;5052736;28;20048;-76
2023/09/22 01:16:47;;;;;;;9.75;4.65;;;14.90;95.10;;;;;;5036121;28;20029;-76
2023/09/22 01:19:16;;;;;;;10.02;4.15;;;14.90;95.10;;;;;;5036054;28;20025;-76
2023/09/22 01:21:42;;;;;;;8.75;4.40;;;14.90;94.80;;;;;;5036036;28;20049;-77
2023/09/22 01:24:10;;;;;;;9.95;4.32;;;14.90;94.90;;;;;;5036127;28;20036;-76
2023/09/22 01:26:36;;;;;;;9.65;4.13;;;14.80;94.90;;;;;;5036021;28;20026;-76
2023/09/22 01:29:04;;;;;;;9.63;4.65;;;14.80;95.00;;;;;;5035809;28;20033;-76
2023/09/22 01:31:29;;;;;;;9.68;4.35;;;14.80;94.80;;;;;;5052015;28;20017;-76
2023/09/22 01:33:55;;;;;;;10.63;4.78;;;14.80;95.00;;;;;;5052218;28;20028;-76
2023/09/22 01:36:20;;;;;;;9.63;4.60;;;14.80;95.10;;;;;;5035849;28;20029;-76
2023/09/22 01:38:46;;;;;;;9.30;4.47;;;14.80;95.00;;;;;;5053160;28;20102;-76
2023/09/22 01:41:12;;;;;;;9.50;5.13;;;14.80;95.10;;;;;;5035779;28;20037;-76
2023/09/22 01:43:38;;;;;;;10.02;4.35;;;14.80;94.90;;;;;;5052417;28;20026;-76
2023/09/22 01:46:05;;;;;;;10.63;4.50;;;14.70;94.60;;;;;;5035741;28;20108;-76
2023/09/22 01:48:32;;;;;;;9.65;4.05;;;14.70;95.00;;;;;;5050811;28;20074;-76
2023/09/22 01:51:04;;;;;;;9.60;3.97;;;14.70;94.60;;;;;;5055548;28;20053;-76
2023/09/22 01:53:30;;;;;;;;;;;14.60;95.00;;;;;;5056510;28;20113;-76
2023/09/22 01:55:56;;;;;;;10.02;4.45;;;14.50;94.90;;;;;;5038910;28;19909;-76
2023/09/22 01:58:21;;;;;;;11.38;4.22;;;14.40;95.40;;;;;;5055702;28;20100;-76
2023/09/22 02:00:48;;;;;;;9.82;4.18;;;14.50;95.50;;;;;;5055400;28;20037;-77
2023/09/22 02:03:15;;;;;;;8.68;4.97;;;14.60;95.90;;;;;;5055611;28;20029;-76
2023/09/22 02:05:41;;;;;;;9.60;4.20;;;14.70;95.40;;;;;;5055656;28;20032;-76
2023/09/22 02:08:08;;;;;;;10.77;4.45;;;14.80;95.30;;;;;;5055530;28;20101;-76
2023/09/22 02:10:34;;;;;;;8.27;3.95;;;14.90;95.10;;;;;;5055543;28;20021;-76
2023/09/22 02:12:59;;;;;;;8.88;4.57;;;14.90;94.90;;;;;;5055413;28;20045;-76
2023/09/22 02:15:25;;;;;;;9.15;4.55;;;14.90;94.80;;;;;;5038782;28;20021;-76
2023/09/22 02:17:51;;;;;;;10.80;4.97;;;14.90;94.70;;;;;;5055177;28;20127;-76
2023/09/22 02:22:45;;;;;;;9.73;4.60;;;15.00;94.90;;;;;;5072935;28;20043;-76
2023/09/22 02:25:12;;;;;;;9.85;4.53;;;15.00;94.80;;;;;;5039193;28;20035;-76
2023/09/22 02:27:37;;;;;;;10.25;4.50;;;15.00;94.80;;;;;;5072808;28;20044;-76
2023/09/22 02:30:03;;;;;;;9.48;4.00;;;15.00;94.90;;;;;;5038556;28;20029;-76
2023/09/22 02:32:29;;;;;;;10.60;4.93;;;15.00;95.00;;;;;;5038762;28;20104;-76
2023/09/22 02:34:56;;;;;;;12.20;5.18;;;15.00;95.00;;;;;;5072661;28;20074;-76
2023/09/22 02:37:22;;;;;;;11.40;4.95;;;15.00;95.10;;;;;;5055119;28;20051;-76
2023/09/22 02:39:47;;;;;;;9.88;4.75;;;15.00;95.00;;;;;;5055175;28;20033;-76
2023/09/22 02:42:14;;;;;;;13.32;5.18;;;15.00;95.00;;;;;;5038563;28;20029;-77
2023/09/22 02:44:40;;;;;;;9.90;4.88;;;15.00;95.00;;;;;;5041004;28;20044;-76
2023/09/22 02:47:05;;;;;;;12.43;4.78;;;15.00;95.10;;;;;;5042092;28;20025;-76
2023/09/22 02:49:31;;;;;;;11.63;4.82;;;15.00;95.00;;;;;;5058826;28;20029;-76
2023/09/22 02:51:57;;;;;;;11.18;5.10;;;15.00;95.10;;;;;;5058699;28;20021;-76
2023/09/22 02:54:23;;;;;;;10.23;4.63;;;15.00;95.10;;;;;;5058627;28;20096;-76
2023/09/22 02:56:49;;;;;;;11.05;4.97;;;15.00;95.10;;;;;;5041973;28;20021;-76
2023/09/22 02:59:15;;;;;;;14.68;5.63;;;15.00;95.20;;;;;;5058431;28;20081;-76
2023/09/22 03:01:41;;;;;;;13.07;5.15;;;15.00;95.30;;;;;;5042078;28;20052;-76
2023/09/22 03:04:10;;;;;;;11.10;5.10;;;15.00;95.30;;;;;;5042136;28;20093;-76
2023/09/22 03:06:36;;;;;;;10.52;5.25;;;15.00;95.30;;;;;;5042216;28;20029;-76
2023/09/22 03:09:06;;;;;;;12.35;5.45;;;15.00;95.40;;;;;;5041725;28;20162;-76
2023/09/22 03:11:32;;;;;;;10.68;4.97;;;15.00;95.40;;;;;;5075952;28;20028;-76
2023/09/22 03:13:58;;;;;;;14.07;5.90;;;15.00;95.50;;;;;;5075904;28;20025;-76
2023/09/22 03:16:26;;;;;;;12.30;4.90;;;15.00;95.60;;;;;;5058336;28;20021;-76
2023/09/22 03:18:52;;;;;;;12.63;5.50;;;15.00;95.60;;;;;;5058406;28;20075;-76
2023/09/22 03:21:22;;;;;;;13.05;5.35;;;15.00;95.60;;;;;;5041592;28;20033;-76
2023/09/22 03:23:50;;;;;;;12.45;4.97;;;15.00;95.70;;;;;;5026179;28;20067;-76
2023/09/22 03:26:18;;;;;;;12.40;5.72;;;15.00;95.60;;;;;;5058684;28;20025;-76
2023/09/22 03:28:44;;;;;;;10.20;5.20;;;15.00;95.70;;;;;;5075517;28;20029;-77
2023/09/22 03:31:10;;;;;;;15.25;5.97;;;15.00;95.70;;;;;;5075598;28;20025;-76
2023/09/22 03:33:40;;;;;;;10.88;5.03;;;14.90;95.70;;;;;;5041632;28;20025;-76
2023/09/22 03:36:09;;;;;;;11.75;4.85;;;14.90;96.20;;;;;;5057799;28;20040;-76
2023/09/22 03:38:42;;;;;;;12.80;5.57;;;14.90;95.90;;;;;;5042085;28;20021;-76
2023/09/22 03:41:09;;;;;;;11.93;5.15;;;14.90;95.90;;;;;;5075344;28;20089;-76
2023/09/22 03:43:35;;;;;;;12.27;5.13;;;14.80;96.10;;;;;;5041417;28;20040;-76
2023/09/22 03:46:01;;;;;;;14.23;6.20;;;14.80;96.10;;;;;;5057609;28;20021;-76
2023/09/22 03:48:26;;;;;;;10.63;5.05;;;14.80;96.30;;;;;;5040878;28;20037;-76
2023/09/22 03:50:55;;;;;;;11.30;5.15;;;14.70;96.40;;;;;;5041087;28;20048;-76
2023/09/22 03:53:22;;;;;;;12.50;5.30;;;14.70;96.50;;;;;;5057676;28;20021;-76
2023/09/22 03:55:48;;;;;;;10.20;5.28;;;14.70;96.50;;;;;;5074741;28;20039;-76
2023/09/22 03:58:16;;;;;;;13.93;5.45;;;14.70;96.60;;;;;;5040826;28;20025;-76
2023/09/22 04:00:43;;;;;;;11.40;4.80;;;14.70;97.10;;;;;;5057659;28;20025;-76
2023/09/22 04:03:09;;;;;;;9.43;4.68;;;14.70;96.70;;;;;;5041140;28;20017;-77
2023/09/22 04:05:36;;;;;;;11.57;5.20;;;14.70;96.70;;;;;;5040858;28;20045;-76
2023/09/22 04:08:02;;;;;;;14.55;5.22;;;14.70;97.00;;;;;;5057340;28;20041;-76
2023/09/22 04:10:27;;;;;;;9.10;4.45;;;14.60;97.00;;;;;;5040670;28;20055;-76
2023/09/22 04:12:53;;;;;;;9.07;5.40;;;14.60;97.00;;;;;;5057380;28;20032;-77
2023/09/22 04:15:19;;;;;;;10.25;4.32;;;14.60;97.10;;;;;;5040575;28;20041;-76
2023/09/22 04:17:46;;;;;;;9.00;4.43;;;14.50;97.20;;;;;;5057202;28;20040;-76
2023/09/22 04:20:13;;;;;;;9.00;4.18;;;14.50;97.30;;;;;;5074599;28;20092;-76
2023/09/22 04:22:39;;;;;;;11.35;4.85;;;14.50;97.50;;;;;;5056994;28;20043;-76
2023/09/22 04:25:11;;;;;;;8.80;4.22;;;14.50;97.50;;;;;;5074683;28;20036;-76
2023/09/22 04:27:46;;;;;;;7.50;4.00;;;14.60;97.50;;;;;;5057671;28;20025;-76
2023/09/22 04:30:15;;;;;;;10.75;4.43;;;14.50;97.50;;;;;;5074325;28;20113;-77
2023/09/22 04:32:42;;;;;;;9.57;4.07;;;14.50;97.50;;;;;;5074374;28;20013;-76
2023/09/22 04:35:09;;;;;;;7.07;4.10;;;14.60;97.50;;;;;;5056950;28;20051;-76
2023/09/22 04:37:35;;;;;;;7.35;3.60;;;14.60;97.50;;;;;;5040377;28;20041;-76
2023/09/22 04:40:01;;;;;;;8.77;4.32;;;14.60;97.40;;;;;;5074235;28;20052;-77
2023/09/22 04:42:27;;;;;;;11.23;4.43;;;14.70;97.40;;;;;;5056727;28;20036;-76
2023/09/22 04:44:52;;;;;;;14.10;4.85;;;14.60;97.30;;;;;;5040220;28;20029;-76
2023/09/22 04:47:18;;;;;;;8.52;3.63;;;14.70;97.20;;;;;;5039853;28;20060;-76
2023/09/22 04:49:44;;;;;;;8.68;3.90;;;14.70;97.20;;;;;;5056465;28;20040;-77
2023/09/22 04:52:10;;;;;;;10.35;4.20;;;14.60;97.20;;;;;;5056560;28;20025;-77
2023/09/22 04:54:36;;;;;;;6.75;3.33;;;14.70;97.20;;;;;;5056512;28;20085;-77
2023/09/22 04:57:02;;;;;;;7.82;3.15;;;14.70;97.20;;;;;;5056221;28;20024;-77
2023/09/22 04:59:28;;;;;;;7.32;3.88;;;14.60;97.20;;;;;;5056224;28;20096;-76
2023/09/22 05:01:56;;;;;;;7.75;3.42;;;14.60;97.30;;;;;;5056430;28;20033;-76
2023/09/22 05:04:23;;;;;;;5.65;3.22;;;14.60;97.40;;;;;;5040083;28;20444;-75
2023/09/22 05:06:49;;;;;;;8.35;3.47;;;14.60;97.30;;;;;;5055958;28;20025;-76
2023/09/22 05:09:15;;;;;;;5.72;2.88;;;14.60;97.30;;;;;;5039517;28;20036;-76
2023/09/22 05:11:41;;;;;;;6.68;3.00;;;14.60;97.30;;;;;;5039853;28;20048;-76
2023/09/22 05:14:06;;;;;;;6.38;2.42;;;14.50;97.30;;;;;;5039737;28;20032;-76
2023/09/22 05:16:32;;;;;;;5.35;2.80;;;14.50;97.30;;;;;;5039575;28;20021;-76
2023/09/22 05:18:59;;;;;;;6.20;2.95;;;14.50;97.20;;;;;;5039486;28;20192;-77
2023/09/22 05:21:25;;;;;;;6.20;3.20;;;14.50;97.40;;;;;;5056254;28;20017;-77
2023/09/22 05:23:51;;;;;;;6.60;2.90;;;14.50;97.50;;;;;;5039293;28;20025;-77
2023/09/22 05:26:17;;;;;;;5.45;2.60;;;14.50;97.30;;;;;;5055928;28;20033;-76
2023/09/22 05:28:43;;;;;;;5.55;2.58;;;14.50;97.20;;;;;;5055853;28;20029;-76
2023/09/22 05:31:09;;;;;;;4.85;2.65;;;14.50;97.20;;;;;;5055808;28;20037;-77
2023/09/22 05:33:35;;;;;;;4.28;2.60;;;14.50;97.20;;;;;;5055675;28;20028;-76
2023/09/22 05:36:01;;;;;;;3.65;2.65;;;14.60;97.10;;;;;;5039202;28;20099;-77
2023/09/22 05:38:27;;;;;;;4.55;2.10;;;14.50;97.20;;;;;;5039101;28;20151;-77
2023/09/22 05:40:53;;;;;;;7.07;2.63;;;14.50;97.30;;;;;;5039162;28;20029;-76
2023/09/22 05:43:22;;;;;;;5.18;2.47;;;14.50;97.20;;;;;;5039231;28;20029;-76
2023/09/22 05:45:53;;;;;;;5.15;2.00;;;14.50;97.10;;;;;;5055672;28;20025;-76
2023/09/22 05:48:19;;;;;;;4.85;3.03;;;14.50;97.10;;;;;;5055432;28;20045;-76
2023/09/22 05:50:59;;;;;;;4.78;2.20;;;14.40;97.30;;;;;;5038972;28;20029;-76
2023/09/22 05:53:25;;;;;;;3.22;2.17;;;14.40;97.30;;;;;;5039212;28;20031;-77
2023/09/22 05:56:11;;;;;;;5.57;2.28;;;14.40;97.30;;;;;;5055480;28;20030;-76
2023/09/22 05:58:38;;;;;;;5.82;2.47;;;14.40;97.40;;;;;;5055141;28;20044;-77
2023/09/22 06:01:14;;;;;;;6.75;2.40;;;14.40;97.40;;;;;;5073044;28;20043;-76
2023/09/22 06:03:41;;;;;;;6.22;2.70;;;14.30;97.60;;;;;;5022620;28;20029;-77
2023/09/22 06:06:08;;;;;;;5.85;2.83;;;14.30;97.70;;;;;;5055641;28;20036;-77
2023/09/22 06:08:36;;;;;;;4.72;2.40;;;14.40;97.70;;;;;;5055290;28;20028;-76
2023/09/22 06:11:02;;;;;;;4.72;2.78;;;14.30;97.70;;;;;;5055557;28;20052;-77
2023/09/22 06:13:28;;;;;;;3.80;2.63;;;14.30;97.80;;;;;;5039206;28;20029;-77
2023/09/22 06:15:53;;;;;;;4.05;2.47;;;14.40;98.30;;;;;;5055364;28;20056;-77
2023/09/22 06:18:19;;;;;;;4.10;2.75;;;14.40;97.90;;;;;;5040779;28;20033;-77
2023/09/22 06:20:45;;;;;;;5.45;2.80;;;14.30;98.00;;;;;;5059337;28;20032;-77
2023/09/22 06:23:10;;;;;;;4.60;2.60;;;14.30;98.00;;;;;;5042710;28;20033;-77
2023/09/22 06:25:36;;;;;;;4.85;2.38;;;14.40;98.00;;;;;;5076855;28;20052;-77
2023/09/22 06:28:05;;;;;;;4.22;2.55;;;14.30;98.10;;;;;;5042501;28;20064;-77
2023/09/22 06:30:34;;;;;;;6.75;2.83;;;14.40;98.00;;;;;;5042974;28;20049;-77
2023/09/22 06:33:00;;;;;;;5.22;3.08;;;14.40;98.00;;;;;;5042959;28;20021;-77
2023/09/22 06:35:26;;;;;;;4.78;2.65;;;14.50;98.00;;;;;;5058887;28;20025;-77
2023/09/22 06:37:53;;;;;;;5.63;2.90;;;14.50;98.00;;;;;;5059149;28;20045;-77
2023/09/22 06:40:19;;;;;;;5.50;3.00;;;14.40;98.10;;;;;;5026172;28;20021;-76
2023/09/22 06:42:45;;;;;;;3.25;2.33;;;14.50;98.10;;;;;;5042413;28;20025;-76
2023/09/22 06:45:15;;;;;;;4.85;2.45;;;14.40;98.00;;;;;;5059017;28;20055;-76
2023/09/22 06:47:42;;;;;;;6.57;2.60;;;14.50;98.20;;;;;;5058572;28;20041;-77
2023/09/22 06:50:08;;;;;;;4.07;2.60;;;14.50;98.20;;;;;;5058724;28;20041;-77
2023/09/22 06:52:37;;;;;;;3.45;2.10;;;14.50;98.10;;;;;;5058579;28;20017;-77
2023/09/22 06:55:08;;;;;;;4.13;2.58;;;14.50;98.10;;;;;;5058571;28;20036;-77
2023/09/22 06:57:36;;;;;;;3.85;2.63;;;14.50;98.10;;;;;;5076439;28;20021;-77
2023/09/22 07:00:15;;;;;;;4.47;2.50;;;14.50;98.10;;;;;;5026259;28;20047;-77
2023/09/22 07:02:46;;;;;;;6.97;2.90;;;14.70;97.80;;;;;;5076169;28;20044;-77
2023/09/22 07:05:12;;;;;;;6.43;2.78;;;14.60;97.90;;;;;;5042246;28;20029;-77
2023/09/22 07:07:38;;;;;;;6.65;2.80;;;14.70;97.90;;;;;;5058394;28;20032;-77
2023/09/22 07:10:09;;;;;;;4.13;2.60;;;14.80;97.90;;;;;;5075953;28;20057;-77
2023/09/22 07:12:38;;;;;;;6.00;2.42;;;14.80;97.80;;;;;;5042382;28;20025;-77
2023/09/22 07:15:04;;;;;;;7.82;2.10;;;14.80;97.30;;;;;;5058794;28;20032;-76
2023/09/22 07:17:31;;;;;;;3.30;2.03;;;14.80;97.20;;;;;;5041884;28;20044;-77
2023/09/22 07:19:57;;;;;;;5.22;2.58;;;14.70;97.50;;;;;;5025573;28;20029;-77
2023/09/22 07:22:23;;;;;;;3.45;1.70;;;14.80;97.30;;;;;;5041645;28;20029;-77
2023/09/22 07:24:52;;;;;;;3.78;1.95;;;14.80;97.30;;;;;;5058168;28;20152;-78
2023/09/22 07:27:18;;;;;;;5.35;1.80;;;14.80;97.30;;;;;;5041539;28;20040;-77
2023/09/22 07:29:44;;;;;;;3.80;1.60;;;14.90;97.00;;;;;;5040615;28;20025;-77
2023/09/22 07:32:10;;;;;;;5.38;1.70;;;14.90;96.90;;;;;;5041373;28;20096;-77
2023/09/22 07:34:35;;;;;;;5.28;1.83;;;14.90;97.00;;;;;;5058036;28;20029;-77
2023/09/22 07:37:01;;;;;;;4.47;2.25;;;15.00;96.70;;;;;;5041319;28;20035;-77
2023/09/22 07:39:26;;;;;;;3.53;1.60;;;15.00;96.60;;;;;;5041189;28;20040;-76
2023/09/22 07:41:52;;;;;;;3.20;1.35;;;15.10;95.90;;;;;;5057811;28;20100;-77
2023/09/22 07:44:21;;;;;;;2.65;1.50;;;15.10;96.30;;;;;;5041306;28;20025;-77
2023/09/22 07:46:48;;;;;;;3.33;1.38;;;15.10;96.10;;;;;;5075303;28;20021;-77
2023/09/22 07:49:14;;;;;;;3.22;1.20;;;15.20;96.70;;;;;;5024637;28;20045;-78
2023/09/22 07:51:39;;;;;;;5.72;1.50;;;15.20;96.30;;;;;;5024863;28;20047;-78
2023/09/22 07:54:05;;;;;;;1.38;1.02;;;15.30;95.70;;;;;;5041059;28;20049;-77
2023/09/22 07:56:32;;;;;;;2.40;1.17;;;15.30;95.20;;;;;;5041042;28;20085;-77
2023/09/22 07:58:59;;;;;;;2.88;0.95;;;15.30;95.60;;;;;;5057516;28;20044;-77
2023/09/22 08:01:25;;;;;;;2.42;1.10;;;15.30;95.40;;;;;;5057405;28;20025;-77
2023/09/22 08:03:51;;;;;;;1.63;0.95;;;15.40;95.20;;;;;;5040894;28;20029;-76
2023/09/22 08:06:17;;;;;;;1.27;0.73;;;15.40;95.10;;;;;;5040867;28;20025;-75
2023/09/22 08:08:43;;;;;;;1.13;0.70;;;15.40;94.60;;;;;;5074847;28;20044;-76
2023/09/22 08:11:09;;;;;;;0.95;0.77;;;15.50;94.50;;;;;;5040603;28;20029;-76
2023/09/22 08:13:35;;;;;;;1.85;0.82;;;15.50;94.20;;;;;;5040620;28;20036;-76
2023/09/22 08:16:04;;;;;;;2.53;1.17;;;15.50;94.60;;;;;;5057118;28;20045;-76
2023/09/22 08:18:34;;;;;;;2.92;0.80;;;15.70;94.50;;;;;;5041000;28;20028;-76
2023/09/22 08:20:59;;;;;;;1.42;0.77;;;15.70;94.50;;;;;;5041359;28;20021;-76
2023/09/22 08:23:25;;;;;;;3.30;0.77;;;15.80;94.00;;;;;;5040451;28;20060;-76
2023/09/22 08:25:56;;;;;;;3.38;1.27;;;15.80;93.70;;;;;;5056918;28;20048;-76
2023/09/22 08:28:22;;;;;;;4.90;1.17;;;15.70;93.10;;;;;;5025353;28;20039;-76
2023/09/22 08:30:48;;;;;;;3.15;0.90;;;15.80;93.70;;;;;;5074403;28;20036;-77
2023/09/22 08:33:14;;;;;;;5.45;0.90;;;15.90;94.10;;;;;;5056785;28;20029;-77
2023/09/22 08:35:40;;;;;;;2.97;0.70;;;16.10;94.00;;;;;;5023814;28;20045;-76
2023/09/22 08:38:06;;;;;;;3.00;0.70;;;16.10;93.50;;;;;;5040340;28;20021;-77
2023/09/22 08:40:32;;;;;;;0.77;0.65;;;16.00;92.10;;;;;;5056421;28;20205;-76
2023/09/22 08:42:58;;;;;;;1.88;0.85;;;16.10;92.40;;;;;;5023205;28;20109;-75
2023/09/22 08:45:24;;;;;;;1.23;0.55;;;16.10;91.70;;;;;;5056601;28;20088;-76
2023/09/22 08:47:50;;;;;;;3.70;0.80;;;16.10;91.70;;;;;;5056447;28;20040;-76
2023/09/22 08:50:18;;;;;;;0.95;0.50;;;16.10;91.80;;;;;;5023690;28;20033;-77
2023/09/22 08:52:48;;;;;;;1.30;0.70;;;16.20;91.90;;;;;;5056415;28;20019;-77
2023/09/22 08:55:14;;;;;;;1.75;1.05;;;16.20;92.00;;;;;;5040673;28;20028;-76
2023/09/22 08:57:47;;;;;;;1.30;0.77;;;16.40;92.70;;;;;;5073896;28;20036;-75
2023/09/22 09:00:26;;;;;;;1.90;0.63;;;16.40;90.90;;;;;;5056323;28;20033;-76
2023/09/22 09:02:55;;;;;;;1.65;0.70;;;16.40;91.70;;;;;;5056374;28;20032;-76
2023/09/22 09:05:30;;;;;;;2.22;0.90;;;16.30;91.00;;;;;;5073834;28;20025;-76
2023/09/22 09:08:12;;;;;;;1.88;1.00;;;16.20;91.30;;;;;;5056106;28;20039;-76
2023/09/22 09:10:40;;;;;;;1.88;0.73;;;16.50;92.00;;;;;;5039585;28;20029;-76
2023/09/22 09:13:06;;;;;;;0.70;0.60;;;16.40;91.30;;;;;;5073639;28;20018;-76
2023/09/22 09:15:48;;;;;;;1.58;0.60;;;16.40;90.90;;;;;;5056007;28;20039;-76
2023/09/22 09:18:19;;;;;;;1.42;0.77;;;16.40;91.00;;;;;;5056033;28;20032;-76
2023/09/22 09:20:47;;;;;;;3.70;0.90;;;16.50;91.10;;;;;;5055871;28;20031;-76
2023/09/22 09:23:19;;;;;;;1.50;0.70;;;16.60;91.60;;;;;;5023392;28;20040;-77
2023/09/22 09:25:46;;;;;;;;;;;16.70;91.10;;;;;;5056298;28;20438;-76
2023/09/22 09:28:12;;;;;;;5.07;1.00;;;16.80;91.20;;;;;;5039247;28;19909;-76
2023/09/22 09:30:48;;;;;;;1.42;0.70;;;17.00;91.20;;;;;;5055658;28;20037;-76
2023/09/22 09:33:13;;;;;;;1.67;0.75;;;17.10;90.70;;;;;;5055774;28;20013;-77
2023/09/22 09:35:41;;;;;;;2.88;0.98;;;17.20;90.30;;;;;;5039120;28;20107;-76
2023/09/22 09:38:08;;;;;;;0.50;0.50;;;17.10;89.50;;;;;;5039307;28;20129;-76
2023/09/22 09:40:37;;;;;;;0.90;0.70;;;17.10;89.50;;;;;;5039339;28;20021;-77
2023/09/22 09:43:06;;;;;;;1.58;0.90;;;17.20;90.20;;;;;;5039508;28;20048;-77
2023/09/22 09:45:34;;;;;;;2.83;0.73;;;17.20;88.10;;;;;;5055462;28;20025;-76
2023/09/22 09:48:01;;;;;;;1.13;0.70;;;17.30;87.70;;;;;;5055617;28;20117;-76
2023/09/22 09:50:28;;;;;;;2.83;0.80;;;17.40;87.00;;;;;;5039208;28;20054;-77
2023/09/22 09:52:57;;;;;;;1.65;0.80;;;17.40;86.00;;;;;;5072809;28;20021;-76
2023/09/22 09:55:26;;;;;;;0.90;0.70;;;17.40;85.40;;;;;;5039386;28;20037;-76
2023/09/22 09:57:53;;;;;;;1.77;0.88;;;17.40;85.10;;;;;;5073103;28;20025;-77
2023/09/22 10:00:19;;;;;;;2.00;0.80;;;17.30;84.70;;;;;;5073096;28;20048;-76
2023/09/22 10:02:46;;;;;;;0.93;0.68;;;17.30;83.50;;;;;;5038988;28;20036;-76
2023/09/22 10:05:21;;;;;;;3.45;0.70;;;17.30;83.20;;;;;;5038939;28;20037;-76
2023/09/22 10:07:48;;;;;;;1.85;0.60;;;17.30;83.70;;;;;;5073045;28;20025;-77
2023/09/22 10:10:19;;;;;;;2.58;0.57;;;17.30;84.20;;;;;;5072922;28;20029;-76
2023/09/22 10:12:45;;;;;;;1.87;0.70;;;17.40;84.90;;;;;;5073078;28;20021;-76
2023/09/22 10:15:11;;;;;;;1.88;0.75;;;17.40;85.80;;;;;;5055304;28;20329;-77
2023/09/22 10:17:38;;;;;;;1.55;0.93;;;17.50;85.30;;;;;;5072956;28;20022;-76
2023/09/22 10:20:13;;;;;;;1.45;0.77;;;17.40;84.20;;;;;;5055484;28;20025;-76
2023/09/22 10:22:40;;;;;;;1.83;1.02;;;17.40;84.00;;;;;;5072901;28;20059;-77
2023/09/22 10:25:14;;;;;;;1.67;0.73;;;17.60;85.40;;;;;;5055284;28;20102;-76
2023/09/22 10:27:59;;;;;;;2.05;0.80;;;17.70;83.50;;;;;;5055148;28;20096;-76
2023/09/22 10:30:45;;;;;;;3.13;1.52;;;17.70;82.10;;;;;;5055225;28;20052;-76
2023/09/22 10:33:16;;;;;;;1.83;0.70;;;17.80;83.50;;;;;;5055015;28;20024;-76
2023/09/22 10:35:43;;;;;;;2.45;0.60;;;17.90;83.00;;;;;;5072696;28;20025;-75
2023/09/22 10:38:12;;;;;;;1.92;0.50;;;17.90;83.50;;;;;;5055148;28;20033;-77
2023/09/22 10:40:41;;;;;;;1.77;0.70;;;18.10;84.20;;;;;;5072725;28;20025;-75
2023/09/22 10:43:06;;;;;;;1.63;0.68;;;18.30;85.30;;;;;;5038921;28;20040;-77
2023/09/22 10:45:32;;;;;;;4.97;0.93;;;18.40;83.40;;;;;;5038534;28;20040;-76
2023/09/22 10:47:59;;;;;;;2.13;0.82;;;18.40;81.80;;;;;;5038452;28;20049;-76
2023/09/22 10:50:33;;;;;;;1.42;0.50;;;18.50;82.90;;;;;;5072474;28;20043;-76
2023/09/22 10:53:03;;;;;;;2.08;0.70;;;18.70;82.50;;;;;;5072653;28;20024;-76
2023/09/22 10:55:28;;;;;;;2.72;0.90;;;18.50;79.80;;;;;;5054955;28;20021;-76
2023/09/22 10:57:55;;;;;;;1.05;0.55;;;18.20;81.20;;;;;;5054934;28;20028;-76
2023/09/22 11:00:22;;;;;;;1.90;0.70;;;18.20;82.90;;;;;;5072543;28;20052;-76
2023/09/22 11:02:48;;;;;;;1.08;0.60;;;18.10;82.90;;;;;;5038538;28;20029;-76
2023/09/22 11:05:17;;;;;;;2.15;0.63;;;17.80;81.00;;;;;;5074152;28;20059;-76
2023/09/22 11:07:44;;;;;;;1.55;0.60;;;17.70;82.60;;;;;;5058571;28;20078;-76
2023/09/22 11:10:18;;;;;;;1.75;0.80;;;17.80;81.50;;;;;;5058248;28;20032;-76
2023/09/22 11:12:52;;;;;;;2.03;0.60;;;18.00;80.90;;;;;;5058443;28;20021;-76
2023/09/22 11:15:19;;;;;;;1.15;0.65;;;18.10;80.10;;;;;;5058324;28;20104;-77
2023/09/22 11:17:47;;;;;;;2.70;0.80;;;18.30;84.30;;;;;;5058266;28;20013;-77
2023/09/22 11:20:26;;;;;;;3.80;0.70;;;18.40;80.00;;;;;;5042064;28;20029;-76
2023/09/22 11:22:53;;;;;;;1.75;0.70;;;18.60;79.30;;;;;;5075870;28;20025;-76
2023/09/22 11:25:21;;;;;;;1.77;0.73;;;18.80;82.00;;;;;;5058149;28;20116;-76
2023/09/22 11:27:51;;;;;;;2.25;0.63;;;19.00;81.70;;;;;;5058365;28;20025;-77
2023/09/22 11:30:21;;;;;;;1.35;0.60;;;19.10;78.60;;;;;;5058724;28;20028;-76
2023/09/22 11:32:47;;;;;;;1.00;0.40;;;19.10;78.50;;;;;;5058627;28;20028;-77
2023/09/22 11:35:42;;;;;;;1.00;0.40;;;19.10;79.70;;;;;;5057888;28;20115;-76
2023/09/22 11:38:27;;;;;;;1.75;0.70;;;19.20;78.80;;;;;;5057897;28;20035;-76
2023/09/22 11:41:17;;;;;;;2.13;0.70;;;19.20;78.70;;;;;;5075449;28;20053;-76
2023/09/22 11:43:48;;;;;;;0.38;0.38;;;19.10;78.10;;;;;;5046047;28;20087;-76
2023/09/22 11:46:18;;;;;;;1.30;0.55;;;19.00;77.20;;;;;;5041259;28;20105;-76
2023/09/22 11:49:12;;;;;;;1.58;0.73;;;18.70;78.10;;;;;;5057409;28;20063;-76
2023/09/22 11:52:07;;;;;;;1.88;0.60;;;18.60;77.80;;;;;;5054865;28;20041;-77
2023/09/22 11:54:34;;;;;;;1.63;0.77;;;18.50;79.60;;;;;;5053022;28;20044;-76
2023/09/22 11:57:01;;;;;;;1.60;0.38;;;18.50;79.70;;;;;;5057634;28;20060;-75
2023/09/22 11:59:30;;;;;;;1.20;0.60;;;18.40;79.80;;;;;;5057505;28;20116;-77
2023/09/22 12:01:55;;;;;;;1.33;0.50;;;18.40;79.70;;;;;;5057391;28;20081;-77
2023/09/22 12:04:24;;;;;;;1.77;0.63;;;18.40;80.70;;;;;;5040883;28;20025;-76
2023/09/22 12:06:51;;;;;;;1.88;0.68;;;18.60;81.60;;;;;;5041201;28;20059;-77
2023/09/22 12:09:17;;;;;;;1.83;0.68;;;18.80;80.50;;;;;;5074886;28;20055;-76
2023/09/22 12:11:43;;;;;;;3.13;0.80;;;18.90;80.00;;;;;;5040699;28;20029;-77
2023/09/22 12:14:10;;;;;;;1.55;0.80;;;18.80;79.70;;;;;;5057377;28;20017;-76
2023/09/22 12:16:36;;;;;;;2.85;0.68;;;18.80;79.50;;;;;;5074598;28;20032;-77
2023/09/22 12:19:03;;;;;;;1.83;0.60;;;18.80;78.60;;;;;;5040741;28;20025;-76
2023/09/22 12:21:30;;;;;;;1.75;0.90;;;18.60;78.50;;;;;;5057415;28;20031;-76
2023/09/22 12:23:56;;;;;;;1.45;0.75;;;18.60;77.80;;;;;;5057033;28;20021;-77
2023/09/22 12:26:22;;;;;;;1.90;0.70;;;18.80;79.20;;;;;;5057011;28;20036;-77
2023/09/22 12:28:49;;;;;;;2.88;1.08;;;19.00;77.50;;;;;;5056754;28;20472;-77
2023/09/22 12:31:15;;;;;;;1.63;0.70;;;19.20;78.50;;;;;;5056918;28;20024;-77
2023/09/22 12:33:41;;;;;;;4.60;0.90;;;19.20;77.30;;;;;;5040192;28;20025;-77
2023/09/22 12:36:08;;;;;;;1.17;0.60;;;19.30;77.00;;;;;;5074436;28;20052;-77
2023/09/22 12:38:35;;;;;;;1.35;0.60;;;19.20;74.70;;;;;;5057167;28;20025;-77
2023/09/22 12:41:01;;;;;;;5.28;0.82;;;19.20;76.20;;;;;;5057108;28;20025;-77
2023/09/22 12:43:27;;;;;;;2.17;0.60;;;19.30;74.40;;;;;;5056689;28;20021;-78
2023/09/22 12:45:52;;;;;;;2.60;0.73;;;19.20;74.30;;;;;;5040072;28;20037;-78
2023/09/22 12:48:18;;;;;;;2.58;0.95;;;19.10;74.30;;;;;;5056586;28;20053;-78
2023/09/22 12:50:56;;;;;;;1.15;0.50;;;19.00;74.80;;;;;;5040025;28;20033;-76
2023/09/22 12:53:25;;;;;;;1.40;0.55;;;19.00;75.00;;;;;;5056503;28;20057;-77
2023/09/22 12:55:58;;;;;;;1.77;0.63;;;18.90;76.20;;;;;;5056542;28;20025;-81
2023/09/22 12:58:27;;;;;;;;;;;18.80;76.50;;;;;;5040766;28;20033;-78
2023/09/22 13:00:57;;;;;;;0.95;0.50;;;18.70;75.60;;;;;;5073938;28;19948;-78
2023/09/22 13:03:23;;;;;;;1.75;0.70;;;18.70;77.10;;;;;;5056250;28;20124;-77
2023/09/22 13:05:49;;;;;;;2.88;0.80;;;18.60;76.60;;;;;;5039749;28;20033;-77
2023/09/22 13:08:16;;;;;;;1.45;0.57;;;18.60;76.70;;;;;;5056186;28;20100;-77
2023/09/22 13:10:43;;;;;;;2.65;0.70;;;18.60;76.90;;;;;;5056243;28;20052;-78
2023/09/22 13:13:09;;;;;;;1.48;0.80;;;18.60;77.60;;;;;;5056294;28;20525;-77
2023/09/22 13:15:40;;;;;;;1.30;0.70;;;18.60;78.60;;;;;;5056040;28;20021;-78
2023/09/22 13:18:07;;;;;;;1.92;0.60;;;18.70;77.60;;;;;;5073705;28;20052;-78
2023/09/22 13:20:33;;;;;;;2.95;0.70;;;18.70;77.20;;;;;;5056201;28;20055;-77
2023/09/22 13:23:01;;;;;;;2.63;0.93;;;18.80;78.40;;;;;;5073635;28;20055;-77
2023/09/22 13:25:28;;;;;;;1.58;0.60;;;18.90;78.10;;;;;;5056308;28;20017;-77